sensor_id;sensor_type;location;lat;lon;timestamp;temperature;humidity
67722;SHT31;58309;45.292;11.820;2024-03-29T00:00:36;6.94;99.99
67722;SHT31;58309;45.292;11.820;2024-03-29T00:03:04;6.91;99.99
67722;SHT31;58309;45.292;11.820;2024-03-29T00:05:48;6.90;99.99
67722;SHT31;58309;45.292;11.820;2024-03-29T00:08:13;6.87;99.99
67722;SHT31;58309;45.292;11.820;2024-03-29T00:10:38;6.85;99.99
67722;SHT31;58309;45.292;11.820;2024-03-29T00:13:04;6.85;99.99
67722;SHT31;58309;45.292;11.820;2024-03-29T00:15:33;6.85;99.99
67722;SHT31;58309;45.292;11.820;2024-03-29T00:17:58;6.87;99.99
67722;SHT31;58309;45.292;11.820;2024-03-29T00:20:24;6.87;99.99
67722;SHT31;58309;45.292;11.820;2024-03-29T00:22:49;6.87;99.99
67722;SHT31;58309;45.292;11.820;2024-03-29T00:25:15;6.90;99.99
67722;SHT31;58309;45.292;11.820;2024-03-29T00:27:40;6.99;99.99
67722;SHT31;58309;45.292;11.820;2024-03-29T00:30:06;6.95;99.99
67722;SHT31;58309;45.292;11.820;2024-03-29T00:32:31;6.92;99.99
67722;SHT31;58309;45.292;11.820;2024-03-29T00:34:57;6.94;99.99
67722;SHT31;58309;45.292;11.820;2024-03-29T00:37:23;7.01;99.99
67722;SHT31;58309;45.292;11.820;2024-03-29T00:39:49;7.05;99.99
67722;SHT31;58309;45.292;11.820;2024-03-29T00:42:14;7.05;99.99
67722;SHT31;58309;45.292;11.820;2024-03-29T00:44:44;7.08;99.99
67722;SHT31;58309;45.292;11.820;2024-03-29T00:47:10;7.11;99.99
67722;SHT31;58309;45.292;11.820;2024-03-29T00:49:36;7.08;99.99
67722;SHT31;58309;45.292;11.820;2024-03-29T00:52:03;7.08;99.99
67722;SHT31;58309;45.292;11.820;2024-03-29T00:54:29;7.07;99.99
67722;SHT31;58309;45.292;11.820;2024-03-29T00:56:54;6.99;99.99
67722;SHT31;58309;45.292;11.820;2024-03-29T00:59:20;7.01;99.99
67722;SHT31;58309;45.292;11.820;2024-03-29T01:01:46;7.04;99.99
67722;SHT31;58309;45.292;11.820;2024-03-29T01:04:11;6.99;99.99
67722;SHT31;58309;45.292;11.820;2024-03-29T01:06:37;7.04;99.99
67722;SHT31;58309;45.292;11.820;2024-03-29T01:09:03;6.99;99.99
67722;SHT31;58309;45.292;11.820;2024-03-29T01:11:29;6.99;99.99
67722;SHT31;58309;45.292;11.820;2024-03-29T01:13:55;6.91;99.99
67722;SHT31;58309;45.292;11.820;2024-03-29T01:16:21;6.80;99.99
67722;SHT31;58309;45.292;11.820;2024-03-29T01:18:46;6.80;99.99
67722;SHT31;58309;45.292;11.820;2024-03-29T01:21:15;6.84;99.99
67722;SHT31;58309;45.292;11.820;2024-03-29T01:23:41;7.05;99.99
67722;SHT31;58309;45.292;11.820;2024-03-29T01:26:07;7.21;99.99
67722;SHT31;58309;45.292;11.820;2024-03-29T01:28:33;7.23;99.99
67722;SHT31;58309;45.292;11.820;2024-03-29T01:30:58;7.14;99.99
67722;SHT31;58309;45.292;11.820;2024-03-29T01:33:25;7.11;99.99
67722;SHT31;58309;45.292;11.820;2024-03-29T01:35:50;6.99;99.99
67722;SHT31;58309;45.292;11.820;2024-03-29T01:38:15;6.90;99.99
67722;SHT31;58309;45.292;11.820;2024-03-29T01:40:41;6.77;99.99
67722;SHT31;58309;45.292;11.820;2024-03-29T01:43:07;6.74;99.99
67722;SHT31;58309;45.292;11.820;2024-03-29T01:45:35;6.67;99.99
67722;SHT31;58309;45.292;11.820;2024-03-29T01:48:01;6.63;99.99
67722;SHT31;58309;45.292;11.820;2024-03-29T01:50:27;6.63;99.99
67722;SHT31;58309;45.292;11.820;2024-03-29T01:52:52;6.57;99.99
67722;SHT31;58309;45.292;11.820;2024-03-29T01:55:18;6.54;99.99
67722;SHT31;58309;45.292;11.820;2024-03-29T01:57:44;6.56;99.99
67722;SHT31;58309;45.292;11.820;2024-03-29T02:00:09;6.56;99.99
67722;SHT31;58309;45.292;11.820;2024-03-29T02:02:36;6.58;99.99
67722;SHT31;58309;45.292;11.820;2024-03-29T02:05:02;6.63;99.99
67722;SHT31;58309;45.292;11.820;2024-03-29T02:07:28;6.68;99.99
67722;SHT31;58309;45.292;11.820;2024-03-29T02:09:54;6.71;99.99
67722;SHT31;58309;45.292;11.820;2024-03-29T02:12:19;6.74;99.99
67722;SHT31;58309;45.292;11.820;2024-03-29T02:14:45;6.71;99.99
67722;SHT31;58309;45.292;11.820;2024-03-29T02:17:10;6.74;99.99
67722;SHT31;58309;45.292;11.820;2024-03-29T02:19:35;6.83;99.99
67722;SHT31;58309;45.292;11.820;2024-03-29T02:22:03;6.80;99.99
67722;SHT31;58309;45.292;11.820;2024-03-29T02:24:30;6.85;99.99
67722;SHT31;58309;45.292;11.820;2024-03-29T02:26:56;6.94;99.99
67722;SHT31;58309;45.292;11.820;2024-03-29T02:29:23;6.99;99.99
67722;SHT31;58309;45.292;11.820;2024-03-29T02:31:48;7.01;99.99
67722;SHT31;58309;45.292;11.820;2024-03-29T02:34:14;7.04;99.99
67722;SHT31;58309;45.292;11.820;2024-03-29T02:36:40;7.05;99.99
67722;SHT31;58309;45.292;11.820;2024-03-29T02:39:07;7.08;99.99
67722;SHT31;58309;45.292;11.820;2024-03-29T02:41:32;7.09;99.99
67722;SHT31;58309;45.292;11.820;2024-03-29T02:43:58;7.07;99.99
67722;SHT31;58309;45.292;11.820;2024-03-29T02:46:23;7.11;99.99
67722;SHT31;58309;45.292;11.820;2024-03-29T02:48:49;7.08;99.99
67722;SHT31;58309;45.292;11.820;2024-03-29T02:51:14;7.18;99.99
67722;SHT31;58309;45.292;11.820;2024-03-29T02:53:40;7.19;99.99
67722;SHT31;58309;45.292;11.820;2024-03-29T02:56:08;7.22;99.99
67722;SHT31;58309;45.292;11.820;2024-03-29T02:58:37;7.19;99.99
67722;SHT31;58309;45.292;11.820;2024-03-29T03:01:06;7.25;99.99
67722;SHT31;58309;45.292;11.820;2024-03-29T03:03:32;7.21;99.99
67722;SHT31;58309;45.292;11.820;2024-03-29T03:05:57;7.19;99.99
67722;SHT31;58309;45.292;11.820;2024-03-29T03:08:23;7.15;99.99
67722;SHT31;58309;45.292;11.820;2024-03-29T03:11:07;7.15;99.99
67722;SHT31;58309;45.292;11.820;2024-03-29T03:13:32;7.08;99.99
67722;SHT31;58309;45.292;11.820;2024-03-29T03:15:58;7.04;99.99
67722;SHT31;58309;45.292;11.820;2024-03-29T03:18:23;6.97;99.99
67722;SHT31;58309;45.292;11.820;2024-03-29T03:20:53;6.90;99.99
67722;SHT31;58309;45.292;11.820;2024-03-29T03:23:18;6.88;99.99
67722;SHT31;58309;45.292;11.820;2024-03-29T03:25:45;6.87;99.99
67722;SHT31;58309;45.292;11.820;2024-03-29T03:28:10;6.90;99.99
67722;SHT31;58309;45.292;11.820;2024-03-29T03:30:40;6.88;99.99
67722;SHT31;58309;45.292;11.820;2024-03-29T03:33:05;6.85;99.99
67722;SHT31;58309;45.292;11.820;2024-03-29T03:35:31;6.83;99.99
67722;SHT31;58309;45.292;11.820;2024-03-29T03:37:57;6.76;99.99
67722;SHT31;58309;45.292;11.820;2024-03-29T03:40:22;6.80;99.99
67722;SHT31;58309;45.292;11.820;2024-03-29T03:42:47;6.85;99.99
67722;SHT31;58309;45.292;11.820;2024-03-29T03:45:13;6.78;99.99
67722;SHT31;58309;45.292;11.820;2024-03-29T03:47:40;6.71;99.99
67722;SHT31;58309;45.292;11.820;2024-03-29T03:50:05;6.64;99.99
67722;SHT31;58309;45.292;11.820;2024-03-29T03:52:31;6.68;99.99
67722;SHT31;58309;45.292;11.820;2024-03-29T03:54:56;6.63;99.99
67722;SHT31;58309;45.292;11.820;2024-03-29T03:57:21;6.61;99.99
67722;SHT31;58309;45.292;11.820;2024-03-29T03:59:49;6.60;99.99
67722;SHT31;58309;45.292;11.820;2024-03-29T04:02:15;6.61;99.99
67722;SHT31;58309;45.292;11.820;2024-03-29T04:04:40;6.60;99.99
67722;SHT31;58309;45.292;11.820;2024-03-29T04:07:05;6.60;99.99
67722;SHT31;58309;45.292;11.820;2024-03-29T04:09:31;6.54;99.99
67722;SHT31;58309;45.292;11.820;2024-03-29T04:11:57;6.54;99.99
67722;SHT31;58309;45.292;11.820;2024-03-29T04:14:22;6.49;99.99
67722;SHT31;58309;45.292;11.820;2024-03-29T04:16:47;6.51;99.99
67722;SHT31;58309;45.292;11.820;2024-03-29T04:19:13;6.56;99.99
67722;SHT31;58309;45.292;11.820;2024-03-29T04:21:38;6.56;99.99
67722;SHT31;58309;45.292;11.820;2024-03-29T04:24:04;6.54;99.99
67722;SHT31;58309;45.292;11.820;2024-03-29T04:26:32;6.57;99.99
67722;SHT31;58309;45.292;11.820;2024-03-29T04:28:58;6.68;99.99
67722;SHT31;58309;45.292;11.820;2024-03-29T04:31:23;6.77;99.99
67722;SHT31;58309;45.292;11.820;2024-03-29T04:33:49;6.88;99.99
67722;SHT31;58309;45.292;11.820;2024-03-29T04:36:17;6.91;99.99
67722;SHT31;58309;45.292;11.820;2024-03-29T04:38:42;6.91;99.99
67722;SHT31;58309;45.292;11.820;2024-03-29T04:41:09;6.94;99.99
67722;SHT31;58309;45.292;11.820;2024-03-29T04:43:35;6.98;99.99
67722;SHT31;58309;45.292;11.820;2024-03-29T04:46:06;6.97;99.99
67722;SHT31;58309;45.292;11.820;2024-03-29T04:48:34;7.07;99.99
67722;SHT31;58309;45.292;11.820;2024-03-29T04:51:00;7.16;99.99
67722;SHT31;58309;45.292;11.820;2024-03-29T04:53:25;7.19;99.99
67722;SHT31;58309;45.292;11.820;2024-03-29T04:55:55;7.25;99.99
67722;SHT31;58309;45.292;11.820;2024-03-29T04:58:22;7.32;99.99
67722;SHT31;58309;45.292;11.820;2024-03-29T05:00:48;7.36;99.99
67722;SHT31;58309;45.292;11.820;2024-03-29T05:03:13;7.33;99.99
67722;SHT31;58309;45.292;11.820;2024-03-29T05:05:39;7.30;99.99
67722;SHT31;58309;45.292;11.820;2024-03-29T05:08:05;7.35;99.99
67722;SHT31;58309;45.292;11.820;2024-03-29T05:10:30;7.38;99.99
67722;SHT31;58309;45.292;11.820;2024-03-29T05:12:56;7.42;99.99
67722;SHT31;58309;45.292;11.820;2024-03-29T05:15:21;7.46;99.99
67722;SHT31;58309;45.292;11.820;2024-03-29T05:17:46;7.50;99.99
67722;SHT31;58309;45.292;11.820;2024-03-29T05:20:12;7.56;99.99
67722;SHT31;58309;45.292;11.820;2024-03-29T05:22:37;7.58;99.99
67722;SHT31;58309;45.292;11.820;2024-03-29T05:25:03;7.63;99.99
67722;SHT31;58309;45.292;11.820;2024-03-29T05:27:29;7.67;99.99
67722;SHT31;58309;45.292;11.820;2024-03-29T05:29:55;7.73;99.99
67722;SHT31;58309;45.292;11.820;2024-03-29T05:32:20;7.76;99.99
67722;SHT31;58309;45.292;11.820;2024-03-29T05:34:46;7.89;99.99
67722;SHT31;58309;45.292;11.820;2024-03-29T05:37:12;7.91;99.99
67722;SHT31;58309;45.292;11.820;2024-03-29T05:39:37;8.02;99.99
67722;SHT31;58309;45.292;11.820;2024-03-29T05:42:03;8.01;99.99
67722;SHT31;58309;45.292;11.820;2024-03-29T05:44:28;8.07;99.99
67722;SHT31;58309;45.292;11.820;2024-03-29T05:46:54;8.04;99.99
67722;SHT31;58309;45.292;11.820;2024-03-29T05:49:19;8.08;99.99
67722;SHT31;58309;45.292;11.820;2024-03-29T05:51:45;8.15;99.99
67722;SHT31;58309;45.292;11.820;2024-03-29T05:54:10;8.15;99.99
67722;SHT31;58309;45.292;11.820;2024-03-29T05:56:35;8.17;99.99
67722;SHT31;58309;45.292;11.820;2024-03-29T05:59:01;8.24;99.99
67722;SHT31;58309;45.292;11.820;2024-03-29T06:01:26;8.24;99.99
67722;SHT31;58309;45.292;11.820;2024-03-29T06:03:51;8.22;99.99
67722;SHT31;58309;45.292;11.820;2024-03-29T06:06:20;8.22;99.99
67722;SHT31;58309;45.292;11.820;2024-03-29T06:08:49;8.28;99.99
67722;SHT31;58309;45.292;11.820;2024-03-29T06:11:14;8.28;99.99
67722;SHT31;58309;45.292;11.820;2024-03-29T06:13:40;8.31;99.99
67722;SHT31;58309;45.292;11.820;2024-03-29T06:16:28;8.28;99.99
67722;SHT31;58309;45.292;11.820;2024-03-29T06:19:12;8.34;99.99
67722;SHT31;58309;45.292;11.820;2024-03-29T06:21:38;8.32;99.99
67722;SHT31;58309;45.292;11.820;2024-03-29T06:24:11;8.35;99.99
67722;SHT31;58309;45.292;11.820;2024-03-29T06:26:41;8.45;99.99
67722;SHT31;58309;45.292;11.820;2024-03-29T06:29:07;8.52;99.99
67722;SHT31;58309;45.292;11.820;2024-03-29T06:31:35;8.55;99.99
67722;SHT31;58309;45.292;11.820;2024-03-29T06:34:00;8.65;99.99
67722;SHT31;58309;45.292;11.820;2024-03-29T06:36:26;8.75;99.99
67722;SHT31;58309;45.292;11.820;2024-03-29T06:38:53;8.75;99.99
67722;SHT31;58309;45.292;11.820;2024-03-29T06:41:18;8.86;99.99
67722;SHT31;58309;45.292;11.820;2024-03-29T06:43:44;8.93;99.99
67722;SHT31;58309;45.292;11.820;2024-03-29T06:46:10;8.94;99.99
67722;SHT31;58309;45.292;11.820;2024-03-29T06:48:36;8.99;99.99
67722;SHT31;58309;45.292;11.820;2024-03-29T06:51:02;9.14;99.99
67722;SHT31;58309;45.292;11.820;2024-03-29T06:53:28;9.16;99.99
67722;SHT31;58309;45.292;11.820;2024-03-29T06:55:54;9.17;99.99
67722;SHT31;58309;45.292;11.820;2024-03-29T06:58:20;9.24;99.99
67722;SHT31;58309;45.292;11.820;2024-03-29T07:00:46;9.23;99.99
67722;SHT31;58309;45.292;11.820;2024-03-29T07:03:14;9.24;99.99
67722;SHT31;58309;45.292;11.820;2024-03-29T07:05:40;9.35;99.99
67722;SHT31;58309;45.292;11.820;2024-03-29T07:08:06;9.37;99.99
67722;SHT31;58309;45.292;11.820;2024-03-29T07:10:31;9.34;99.99
67722;SHT31;58309;45.292;11.820;2024-03-29T07:12:57;9.40;99.99
67722;SHT31;58309;45.292;11.820;2024-03-29T07:15:22;9.41;99.99
67722;SHT31;58309;45.292;11.820;2024-03-29T07:17:48;9.47;99.99
67722;SHT31;58309;45.292;11.820;2024-03-29T07:20:16;9.51;99.99
67722;SHT31;58309;45.292;11.820;2024-03-29T07:22:41;9.54;99.99
67722;SHT31;58309;45.292;11.820;2024-03-29T07:25:07;9.54;99.99
67722;SHT31;58309;45.292;11.820;2024-03-29T07:27:32;9.72;99.99
67722;SHT31;58309;45.292;11.820;2024-03-29T07:30:01;9.72;99.99
67722;SHT31;58309;45.292;11.820;2024-03-29T07:32:29;9.88;99.99
67722;SHT31;58309;45.292;11.820;2024-03-29T07:34:54;9.86;99.99
67722;SHT31;58309;45.292;11.820;2024-03-29T07:37:23;9.89;99.99
67722;SHT31;58309;45.292;11.820;2024-03-29T07:39:48;10.01;99.99
67722;SHT31;58309;45.292;11.820;2024-03-29T07:42:14;10.05;99.99
67722;SHT31;58309;45.292;11.820;2024-03-29T07:44:39;10.08;99.99
67722;SHT31;58309;45.292;11.820;2024-03-29T07:47:05;10.26;99.99
67722;SHT31;58309;45.292;11.820;2024-03-29T07:49:30;10.40;99.99
67722;SHT31;58309;45.292;11.820;2024-03-29T07:51:55;10.44;99.99
67722;SHT31;58309;45.292;11.820;2024-03-29T07:54:21;10.39;99.99
67722;SHT31;58309;45.292;11.820;2024-03-29T07:56:46;10.40;99.99
67722;SHT31;58309;45.292;11.820;2024-03-29T07:59:12;10.42;99.99
67722;SHT31;58309;45.292;11.820;2024-03-29T08:01:37;10.44;99.99
67722;SHT31;58309;45.292;11.820;2024-03-29T08:04:03;10.43;99.99
67722;SHT31;58309;45.292;11.820;2024-03-29T08:06:28;10.65;99.99
67722;SHT31;58309;45.292;11.820;2024-03-29T08:08:54;10.73;99.99
67722;SHT31;58309;45.292;11.820;2024-03-29T08:11:19;10.73;99.97
67722;SHT31;58309;45.292;11.820;2024-03-29T08:13:45;10.68;99.99
67722;SHT31;58309;45.292;11.820;2024-03-29T08:16:10;10.65;99.99
67722;SHT31;58309;45.292;11.820;2024-03-29T08:18:36;10.78;99.99
67722;SHT31;58309;45.292;11.820;2024-03-29T08:21:02;10.54;99.99
67722;SHT31;58309;45.292;11.820;2024-03-29T08:23:28;10.47;99.99
67722;SHT31;58309;45.292;11.820;2024-03-29T08:25:53;10.61;99.99
67722;SHT31;58309;45.292;11.820;2024-03-29T08:28:23;10.61;99.99
67722;SHT31;58309;45.292;11.820;2024-03-29T08:31:02;10.80;99.99
67722;SHT31;58309;45.292;11.820;2024-03-29T08:33:28;11.00;99.99
67722;SHT31;58309;45.292;11.820;2024-03-29T08:35:55;11.01;99.99
67722;SHT31;58309;45.292;11.820;2024-03-29T08:38:21;11.02;99.86
67722;SHT31;58309;45.292;11.820;2024-03-29T08:40:46;11.31;99.82
67722;SHT31;58309;45.292;11.820;2024-03-29T08:43:14;11.47;98.75
67722;SHT31;58309;45.292;11.820;2024-03-29T08:45:40;11.39;98.57
67722;SHT31;58309;45.292;11.820;2024-03-29T08:48:09;11.72;98.97
67722;SHT31;58309;45.292;11.820;2024-03-29T08:50:35;11.79;98.58
67722;SHT31;58309;45.292;11.820;2024-03-29T08:53:02;11.74;97.83
67722;SHT31;58309;45.292;11.820;2024-03-29T08:55:29;11.86;98.38
67722;SHT31;58309;45.292;11.820;2024-03-29T08:57:56;11.65;98.12
67722;SHT31;58309;45.292;11.820;2024-03-29T09:00:21;11.79;98.56
67722;SHT31;58309;45.292;11.820;2024-03-29T09:02:47;12.04;98.08
67722;SHT31;58309;45.292;11.820;2024-03-29T09:05:12;12.42;96.05
67722;SHT31;58309;45.292;11.820;2024-03-29T09:07:37;12.85;95.57
67722;SHT31;58309;45.292;11.820;2024-03-29T09:10:04;12.82;94.03
67722;SHT31;58309;45.292;11.820;2024-03-29T09:12:29;13.06;93.05
67722;SHT31;58309;45.292;11.820;2024-03-29T09:14:55;13.40;92.25
67722;SHT31;58309;45.292;11.820;2024-03-29T09:17:20;13.26;93.26
67722;SHT31;58309;45.292;11.820;2024-03-29T09:19:49;13.19;94.75
67722;SHT31;58309;45.292;11.820;2024-03-29T09:22:16;13.20;94.07
67722;SHT31;58309;45.292;11.820;2024-03-29T09:24:41;13.53;92.94
67722;SHT31;58309;45.292;11.820;2024-03-29T09:27:06;13.46;92.65
67722;SHT31;58309;45.292;11.820;2024-03-29T09:29:32;13.70;91.80
67722;SHT31;58309;45.292;11.820;2024-03-29T09:31:58;13.92;91.39
67722;SHT31;58309;45.292;11.820;2024-03-29T09:34:24;14.06;90.61
67722;SHT31;58309;45.292;11.820;2024-03-29T09:36:49;14.06;89.97
67722;SHT31;58309;45.292;11.820;2024-03-29T09:39:15;14.09;90.25
67722;SHT31;58309;45.292;11.820;2024-03-29T09:41:44;14.39;89.83
67722;SHT31;58309;45.292;11.820;2024-03-29T09:44:10;15.00;88.14
67722;SHT31;58309;45.292;11.820;2024-03-29T09:46:36;15.69;86.94
67722;SHT31;58309;45.292;11.820;2024-03-29T09:49:05;15.21;85.56
67722;SHT31;58309;45.292;11.820;2024-03-29T09:51:32;14.81;87.04
67722;SHT31;58309;45.292;11.820;2024-03-29T09:53:59;14.77;88.10
67722;SHT31;58309;45.292;11.820;2024-03-29T09:56:27;14.94;87.50
67722;SHT31;58309;45.292;11.820;2024-03-29T09:58:52;14.94;86.72
67722;SHT31;58309;45.292;11.820;2024-03-29T10:01:18;15.31;86.25
67722;SHT31;58309;45.292;11.820;2024-03-29T10:03:49;15.61;86.16
67722;SHT31;58309;45.292;11.820;2024-03-29T10:06:16;14.98;85.68
67722;SHT31;58309;45.292;11.820;2024-03-29T10:08:44;15.72;84.51
67722;SHT31;58309;45.292;11.820;2024-03-29T10:11:11;16.30;85.07
67722;SHT31;58309;45.292;11.820;2024-03-29T10:13:36;16.03;84.62
67722;SHT31;58309;45.292;11.820;2024-03-29T10:16:03;15.32;85.19
67722;SHT31;58309;45.292;11.820;2024-03-29T10:18:29;15.27;85.57
67722;SHT31;58309;45.292;11.820;2024-03-29T10:21:05;15.15;86.02
67722;SHT31;58309;45.292;11.820;2024-03-29T10:23:31;15.30;85.97
67722;SHT31;58309;45.292;11.820;2024-03-29T10:25:57;15.04;86.45
67722;SHT31;58309;45.292;11.820;2024-03-29T10:28:23;14.53;88.22
67722;SHT31;58309;45.292;11.820;2024-03-29T10:30:49;14.77;87.64
67722;SHT31;58309;45.292;11.820;2024-03-29T10:33:16;14.87;88.07
67722;SHT31;58309;45.292;11.820;2024-03-29T10:35:44;15.28;86.74
67722;SHT31;58309;45.292;11.820;2024-03-29T10:38:10;15.73;86.54
67722;SHT31;58309;45.292;11.820;2024-03-29T10:40:40;15.70;85.33
67722;SHT31;58309;45.292;11.820;2024-03-29T10:43:08;15.94;83.56
67722;SHT31;58309;45.292;11.820;2024-03-29T10:45:37;15.49;85.72
67722;SHT31;58309;45.292;11.820;2024-03-29T10:48:04;15.83;85.60
67722;SHT31;58309;45.292;11.820;2024-03-29T10:50:38;16.03;83.51
67722;SHT31;58309;45.292;11.820;2024-03-29T10:53:07;16.51;83.32
67722;SHT31;58309;45.292;11.820;2024-03-29T10:55:36;17.30;82.35
67722;SHT31;58309;45.292;11.820;2024-03-29T10:58:04;17.81;79.28
67722;SHT31;58309;45.292;11.820;2024-03-29T11:00:33;17.94;80.80
67722;SHT31;58309;45.292;11.820;2024-03-29T11:05:48;18.62;78.01
67722;SHT31;58309;45.292;11.820;2024-03-29T11:08:17;18.56;76.42
67722;SHT31;58309;45.292;11.820;2024-03-29T11:10:45;19.03;77.42
67722;SHT31;58309;45.292;11.820;2024-03-29T11:15:51;18.99;75.36
67722;SHT31;58309;45.292;11.820;2024-03-29T11:18:18;18.69;76.20
67722;SHT31;58309;45.292;11.820;2024-03-29T11:20:46;18.97;78.55
67722;SHT31;58309;45.292;11.820;2024-03-29T11:23:17;18.31;77.25
67722;SHT31;58309;45.292;11.820;2024-03-29T11:25:44;19.36;76.05
67722;SHT31;58309;45.292;11.820;2024-03-29T11:28:24;20.02;74.54
67722;SHT31;58309;45.292;11.820;2024-03-29T11:30:52;19.08;75.62
67722;SHT31;58309;45.292;11.820;2024-03-29T11:36:13;18.72;77.71
67722;SHT31;58309;45.292;11.820;2024-03-29T11:38:40;17.32;79.79
67722;SHT31;58309;45.292;11.820;2024-03-29T11:41:13;16.85;82.76
67722;SHT31;58309;45.292;11.820;2024-03-29T11:43:39;16.53;82.14
67722;SHT31;58309;45.292;11.820;2024-03-29T11:46:07;16.10;83.28
67722;SHT31;58309;45.292;11.820;2024-03-29T11:48:34;16.25;83.86
67722;SHT31;58309;45.292;11.820;2024-03-29T11:51:01;16.62;84.42
67722;SHT31;58309;45.292;11.820;2024-03-29T11:53:28;16.96;83.05
67722;SHT31;58309;45.292;11.820;2024-03-29T11:56:01;17.16;83.20
67722;SHT31;58309;45.292;11.820;2024-03-29T11:58:28;17.01;83.43
67722;SHT31;58309;45.292;11.820;2024-03-29T12:00:55;17.63;82.27
67722;SHT31;58309;45.292;11.820;2024-03-29T12:03:22;18.18;80.46
67722;SHT31;58309;45.292;11.820;2024-03-29T12:05:49;18.77;79.06
67722;SHT31;58309;45.292;11.820;2024-03-29T12:08:16;19.79;78.00
67722;SHT31;58309;45.292;11.820;2024-03-29T12:10:42;19.71;76.75
67722;SHT31;58309;45.292;11.820;2024-03-29T12:13:08;18.29;77.13
67722;SHT31;58309;45.292;11.820;2024-03-29T12:15:34;19.43;76.45
67722;SHT31;58309;45.292;11.820;2024-03-29T12:18:04;19.06;77.67
67722;SHT31;58309;45.292;11.820;2024-03-29T12:20:36;18.57;77.86
67722;SHT31;58309;45.292;11.820;2024-03-29T12:23:07;19.28;77.88
67722;SHT31;58309;45.292;11.820;2024-03-29T12:25:36;19.03;77.81
67722;SHT31;58309;45.292;11.820;2024-03-29T12:28:01;18.51;77.46
67722;SHT31;58309;45.292;11.820;2024-03-29T12:30:27;18.67;79.88
67722;SHT31;58309;45.292;11.820;2024-03-29T12:33:05;18.39;78.29
67722;SHT31;58309;45.292;11.820;2024-03-29T12:35:34;18.77;79.84
67722;SHT31;58309;45.292;11.820;2024-03-29T12:38:00;18.52;79.99
67722;SHT31;58309;45.292;11.820;2024-03-29T12:40:27;18.06;80.69
67722;SHT31;58309;45.292;11.820;2024-03-29T12:42:55;17.78;80.98
67722;SHT31;58309;45.292;11.820;2024-03-29T12:45:22;17.85;80.90
67722;SHT31;58309;45.292;11.820;2024-03-29T12:47:48;18.11;80.58
67722;SHT31;58309;45.292;11.820;2024-03-29T12:50:25;18.31;81.10
67722;SHT31;58309;45.292;11.820;2024-03-29T12:53:00;17.53;81.50
67722;SHT31;58309;45.292;11.820;2024-03-29T12:55:28;17.18;82.21
67722;SHT31;58309;45.292;11.820;2024-03-29T12:57:56;17.91;82.72
67722;SHT31;58309;45.292;11.820;2024-03-29T13:00:21;17.97;82.71
67722;SHT31;58309;45.292;11.820;2024-03-29T13:02:47;17.84;81.27
67722;SHT31;58309;45.292;11.820;2024-03-29T13:05:13;17.69;82.48
67722;SHT31;58309;45.292;11.820;2024-03-29T13:07:39;17.67;82.81
67722;SHT31;58309;45.292;11.820;2024-03-29T13:10:04;17.74;82.16
67722;SHT31;58309;45.292;11.820;2024-03-29T13:12:45;18.15;81.96
67722;SHT31;58309;45.292;11.820;2024-03-29T13:15:21;17.94;81.55
67722;SHT31;58309;45.292;11.820;2024-03-29T13:17:49;18.25;81.21
67722;SHT31;58309;45.292;11.820;2024-03-29T13:20:15;17.90;82.18
67722;SHT31;58309;45.292;11.820;2024-03-29T13:22:42;18.06;81.24
67722;SHT31;58309;45.292;11.820;2024-03-29T13:25:10;17.77;81.22
67722;SHT31;58309;45.292;11.820;2024-03-29T13:27:39;17.64;82.48
67722;SHT31;58309;45.292;11.820;2024-03-29T13:30:09;17.53;83.38
67722;SHT31;58309;45.292;11.820;2024-03-29T13:32:35;17.73;83.32
67722;SHT31;58309;45.292;11.820;2024-03-29T13:35:02;17.73;82.91
67722;SHT31;58309;45.292;11.820;2024-03-29T13:37:31;17.60;84.02
67722;SHT31;58309;45.292;11.820;2024-03-29T13:39:56;17.54;83.17
67722;SHT31;58309;45.292;11.820;2024-03-29T13:42:22;17.66;83.53
67722;SHT31;58309;45.292;11.820;2024-03-29T13:44:51;17.36;82.75
67722;SHT31;58309;45.292;11.820;2024-03-29T13:47:17;17.13;83.70
67722;SHT31;58309;45.292;11.820;2024-03-29T13:49:43;17.29;84.02
67722;SHT31;58309;45.292;11.820;2024-03-29T13:52:09;17.33;83.90
67722;SHT31;58309;45.292;11.820;2024-03-29T13:54:34;17.54;83.23
67722;SHT31;58309;45.292;11.820;2024-03-29T13:57:01;17.51;82.86
67722;SHT31;58309;45.292;11.820;2024-03-29T13:59:29;17.54;83.13
67722;SHT31;58309;45.292;11.820;2024-03-29T14:01:54;17.42;83.24
67722;SHT31;58309;45.292;11.820;2024-03-29T14:04:19;17.20;83.38
67722;SHT31;58309;45.292;11.820;2024-03-29T14:06:45;17.25;83.63
67722;SHT31;58309;45.292;11.820;2024-03-29T14:09:10;17.30;83.86
67722;SHT31;58309;45.292;11.820;2024-03-29T14:11:37;17.42;84.72
67722;SHT31;58309;45.292;11.820;2024-03-29T14:14:02;17.59;84.24
67722;SHT31;58309;45.292;11.820;2024-03-29T14:16:28;17.63;84.48
67722;SHT31;58309;45.292;11.820;2024-03-29T14:18:53;17.44;83.77
67722;SHT31;58309;45.292;11.820;2024-03-29T14:21:19;17.25;84.03
67722;SHT31;58309;45.292;11.820;2024-03-29T14:23:44;17.44;83.24
67722;SHT31;58309;45.292;11.820;2024-03-29T14:26:10;17.26;83.98
67722;SHT31;58309;45.292;11.820;2024-03-29T14:28:35;17.39;84.55
67722;SHT31;58309;45.292;11.820;2024-03-29T14:31:01;17.09;83.97
67722;SHT31;58309;45.292;11.820;2024-03-29T14:33:26;16.81;84.23
67722;SHT31;58309;45.292;11.820;2024-03-29T14:35:51;16.75;85.47
67722;SHT31;58309;45.292;11.820;2024-03-29T14:38:17;16.86;85.85
67722;SHT31;58309;45.292;11.820;2024-03-29T14:40:42;16.71;85.87
67722;SHT31;58309;45.292;11.820;2024-03-29T14:43:08;16.91;86.27
67722;SHT31;58309;45.292;11.820;2024-03-29T14:45:33;16.76;86.00
67722;SHT31;58309;45.292;11.820;2024-03-29T14:47:59;16.84;86.02
67722;SHT31;58309;45.292;11.820;2024-03-29T14:50:24;16.92;84.94
67722;SHT31;58309;45.292;11.820;2024-03-29T14:52:50;17.06;85.62
67722;SHT31;58309;45.292;11.820;2024-03-29T14:55:15;17.25;85.81
67722;SHT31;58309;45.292;11.820;2024-03-29T14:57:40;17.18;85.36
67722;SHT31;58309;45.292;11.820;2024-03-29T15:00:06;17.15;85.61
67722;SHT31;58309;45.292;11.820;2024-03-29T15:02:33;17.13;85.43
67722;SHT31;58309;45.292;11.820;2024-03-29T15:04:59;17.27;85.90
67722;SHT31;58309;45.292;11.820;2024-03-29T15:07:24;17.05;86.42
67722;SHT31;58309;45.292;11.820;2024-03-29T15:09:50;17.01;86.33
67722;SHT31;58309;45.292;11.820;2024-03-29T15:12:16;16.95;86.82
67722;SHT31;58309;45.292;11.820;2024-03-29T15:14:42;16.98;86.51
67722;SHT31;58309;45.292;11.820;2024-03-29T15:17:07;16.93;86.65
67722;SHT31;58309;45.292;11.820;2024-03-29T15:19:33;16.98;86.60
67722;SHT31;58309;45.292;11.820;2024-03-29T15:21:59;17.06;86.91
67722;SHT31;58309;45.292;11.820;2024-03-29T15:24:24;17.09;87.89
67722;SHT31;58309;45.292;11.820;2024-03-29T15:26:50;17.03;88.08